sensor_id;sensor_type;location;lat;lon;timestamp;P1;durP1;ratioP1;P2;durP2;ratioP2
4325;SDS011;58429;49.826;10.880;2022-08-25T00:00:05;478.2;;;234.8;;
4325;SDS011;58429;49.826;10.880;2022-08-25T00:01:07;478.2;;;234.8;;
4325;SDS011;58429;49.826;10.880;2022-08-25T00:02:05;478.2;;;234.8;;
4325;SDS011;58429;49.826;10.880;2022-08-25T00:03:04;454.6;;;216.9;;
4325;SDS011;58429;49.826;10.880;2022-08-25T00:04:05;454.6;;;216.9;;
4325;SDS011;58429;49.826;10.880;2022-08-25T00:05:05;454.6;;;216.9;;
4325;SDS011;58429;49.826;10.880;2022-08-25T00:06:05;462.4;;;221.5;;
4325;SDS011;58429;49.826;10.880;2022-08-25T00:07:05;462.4;;;221.5;;
4325;SDS011;58429;49.826;10.880;2022-08-25T00:08:05;462.4;;;221.5;;
4325;SDS011;58429;49.826;10.880;2022-08-25T00:09:05;461.1;;;222.5;;
4325;SDS011;58429;49.826;10.880;2022-08-25T00:10:05;461.1;;;222.5;;
4325;SDS011;58429;49.826;10.880;2022-08-25T00:11:05;461.1;;;222.5;;
4325;SDS011;58429;49.826;10.880;2022-08-25T00:12:05;459;;;219.3;;
4325;SDS011;58429;49.826;10.880;2022-08-25T00:13:05;459;;;219.3;;
4325;SDS011;58429;49.826;10.880;2022-08-25T00:14:06;459;;;219.3;;
4325;SDS011;58429;49.826;10.880;2022-08-25T00:15:05;464.8;;;226.2;;
4325;SDS011;58429;49.826;10.880;2022-08-25T00:16:05;464.8;;;226.2;;
4325;SDS011;58429;49.826;10.880;2022-08-25T00:17:05;464.8;;;226.2;;
4325;SDS011;58429;49.826;10.880;2022-08-25T00:18:04;462.8;;;224.2;;
4325;SDS011;58429;49.826;10.880;2022-08-25T00:19:06;462.8;;;224.2;;
4325;SDS011;58429;49.826;10.880;2022-08-25T00:20:05;462.8;;;224.2;;
4325;SDS011;58429;49.826;10.880;2022-08-25T00:21:05;473.6;;;230.9;;
4325;SDS011;58429;49.826;10.880;2022-08-25T00:22:05;473.6;;;230.9;;
4325;SDS011;58429;49.826;10.880;2022-08-25T00:23:04;473.6;;;230.9;;
4325;SDS011;58429;49.826;10.880;2022-08-25T00:24:05;468;;;224.6;;
4325;SDS011;58429;49.826;10.880;2022-08-25T00:25:05;468;;;224.6;;
4325;SDS011;58429;49.826;10.880;2022-08-25T00:26:05;468;;;224.6;;
4325;SDS011;58429;49.826;10.880;2022-08-25T00:27:04;501.9;;;248.3;;
4325;SDS011;58429;49.826;10.880;2022-08-25T00:28:05;501.9;;;248.3;;
4325;SDS011;58429;49.826;10.880;2022-08-25T00:29:05;501.9;;;248.3;;
4325;SDS011;58429;49.826;10.880;2022-08-25T00:30:05;526.5;;;266.1;;
4325;SDS011;58429;49.826;10.880;2022-08-25T00:31:05;526.5;;;266.1;;
4325;SDS011;58429;49.826;10.880;2022-08-25T00:32:05;526.5;;;266.1;;
4325;SDS011;58429;49.826;10.880;2022-08-25T00:33:04;546.3;;;281;;
4325;SDS011;58429;49.826;10.880;2022-08-25T00:34:05;546.3;;;281;;
4325;SDS011;58429;49.826;10.880;2022-08-25T00:35:05;546.3;;;281;;
4325;SDS011;58429;49.826;10.880;2022-08-25T00:36:05;541.3;;;278.5;;
4325;SDS011;58429;49.826;10.880;2022-08-25T00:37:05;541.3;;;278.5;;
4325;SDS011;58429;49.826;10.880;2022-08-25T00:38:04;541.3;;;278.5;;
4325;SDS011;58429;49.826;10.880;2022-08-25T00:39:05;532.3;;;270.6;;
4325;SDS011;58429;49.826;10.880;2022-08-25T00:40:05;532.3;;;270.6;;
4325;SDS011;58429;49.826;10.880;2022-08-25T00:41:05;532.3;;;270.6;;
4325;SDS011;58429;49.826;10.880;2022-08-25T00:42:05;528.5;;;269.3;;
4325;SDS011;58429;49.826;10.880;2022-08-25T00:43:05;528.5;;;269.3;;
4325;SDS011;58429;49.826;10.880;2022-08-25T00:44:05;528.5;;;269.3;;
4325;SDS011;58429;49.826;10.880;2022-08-25T00:45:05;541.8;;;279.7;;
4325;SDS011;58429;49.826;10.880;2022-08-25T00:46:05;541.8;;;279.7;;
4325;SDS011;58429;49.826;10.880;2022-08-25T00:47:05;541.8;;;279.7;;
4325;SDS011;58429;49.826;10.880;2022-08-25T00:48:05;536;;;275.6;;
4325;SDS011;58429;49.826;10.880;2022-08-25T00:49:05;536;;;275.6;;
4325;SDS011;58429;49.826;10.880;2022-08-25T00:50:05;536;;;275.6;;
4325;SDS011;58429;49.826;10.880;2022-08-25T00:51:05;575.6;;;310.4;;
4325;SDS011;58429;49.826;10.880;2022-08-25T00:52:06;575.6;;;310.4;;
4325;SDS011;58429;49.826;10.880;2022-08-25T00:53:05;575.6;;;310.4;;
4325;SDS011;58429;49.826;10.880;2022-08-25T00:54:05;601.2;;;332.5;;
4325;SDS011;58429;49.826;10.880;2022-08-25T00:55:06;601.2;;;332.5;;
4325;SDS011;58429;49.826;10.880;2022-08-25T00:56:05;601.2;;;332.5;;
4325;SDS011;58429;49.826;10.880;2022-08-25T00:57:05;532.5;;;275.6;;
4325;SDS011;58429;49.826;10.880;2022-08-25T00:58:06;532.5;;;275.6;;
4325;SDS011;58429;49.826;10.880;2022-08-25T00:59:05;532.5;;;275.6;;
4325;SDS011;58429;49.826;10.880;2022-08-25T01:00:06;531.9;;;271.6;;
4325;SDS011;58429;49.826;10.880;2022-08-25T01:01:05;531.9;;;271.6;;
4325;SDS011;58429;49.826;10.880;2022-08-25T01:02:05;531.9;;;271.6;;
4325;SDS011;58429;49.826;10.880;2022-08-25T01:03:05;571;;;299.8;;
4325;SDS011;58429;49.826;10.880;2022-08-25T01:04:05;571;;;299.8;;
4325;SDS011;58429;49.826;10.880;2022-08-25T01:05:05;571;;;299.8;;
4325;SDS011;58429;49.826;10.880;2022-08-25T01:06:05;242.5;;;139.2;;
4325;SDS011;58429;49.826;10.880;2022-08-25T01:07:05;242.5;;;139.2;;
4325;SDS011;58429;49.826;10.880;2022-08-25T01:08:05;242.5;;;139.2;;
4325;SDS011;58429;49.826;10.880;2022-08-25T01:09:05;48;;;24.6;;
4325;SDS011;58429;49.826;10.880;2022-08-25T01:10:05;48;;;24.6;;
4325;SDS011;58429;49.826;10.880;2022-08-25T01:11:06;48;;;24.6;;
4325;SDS011;58429;49.826;10.880;2022-08-25T01:12:05;63.4;;;32.9;;
4325;SDS011;58429;49.826;10.880;2022-08-25T01:13:06;63.4;;;32.9;;
4325;SDS011;58429;49.826;10.880;2022-08-25T01:14:05;63.4;;;32.9;;
4325;SDS011;58429;49.826;10.880;2022-08-25T01:15:06;57.8;;;28.2;;
4325;SDS011;58429;49.826;10.880;2022-08-25T01:16:05;57.8;;;28.2;;
4325;SDS011;58429;49.826;10.880;2022-08-25T01:17:05;57.8;;;28.2;;
4325;SDS011;58429;49.826;10.880;2022-08-25T01:18:05;57.6;;;29.7;;
4325;SDS011;58429;49.826;10.880;2022-08-25T01:19:05;57.6;;;29.7;;
4325;SDS011;58429;49.826;10.880;2022-08-25T01:20:05;57.6;;;29.7;;
4325;SDS011;58429;49.826;10.880;2022-08-25T01:21:05;14.6;;;8;;
4325;SDS011;58429;49.826;10.880;2022-08-25T01:22:05;14.6;;;8;;
4325;SDS011;58429;49.826;10.880;2022-08-25T01:23:05;14.6;;;8;;
4325;SDS011;58429;49.826;10.880;2022-08-25T01:24:05;94.5;;;65.9;;
4325;SDS011;58429;49.826;10.880;2022-08-25T01:25:06;94.5;;;65.9;;
4325;SDS011;58429;49.826;10.880;2022-08-25T01:26:06;94.5;;;65.9;;
4325;SDS011;58429;49.826;10.880;2022-08-25T01:27:05;108.9;;;74.8;;
4325;SDS011;58429;49.826;10.880;2022-08-25T01:28:05;108.9;;;74.8;;
4325;SDS011;58429;49.826;10.880;2022-08-25T01:29:06;108.9;;;74.8;;
4325;SDS011;58429;49.826;10.880;2022-08-25T01:30:05;62.5;;;39.6;;
4325;SDS011;58429;49.826;10.880;2022-08-25T01:31:05;62.5;;;39.6;;
4325;SDS011;58429;49.826;10.880;2022-08-25T01:32:06;62.5;;;39.6;;
4325;SDS011;58429;49.826;10.880;2022-08-25T01:33:05;62.5;;;39.6;;
4325;SDS011;58429;49.826;10.880;2022-08-25T01:34:05;15.1;;;6.7;;
4325;SDS011;58429;49.826;10.880;2022-08-25T01:35:05;15.1;;;6.7;;
4325;SDS011;58429;49.826;10.880;2022-08-25T01:36:05;15.1;;;6.7;;
4325;SDS011;58429;49.826;10.880;2022-08-25T01:37:05;10.8;;;4.8;;
4325;SDS011;58429;49.826;10.880;2022-08-25T01:38:05;10.8;;;4.8;;
4325;SDS011;58429;49.826;10.880;2022-08-25T01:39:05;10.8;;;4.8;;
4325;SDS011;58429;49.826;10.880;2022-08-25T01:40:05;11.7;;;4.5;;
4325;SDS011;58429;49.826;10.880;2022-08-25T01:41:05;11.7;;;4.5;;
4325;SDS011;58429;49.826;10.880;2022-08-25T01:42:08;11.7;;;4.5;;
4325;SDS011;58429;49.826;10.880;2022-08-25T01:43:06;11.6;;;4.6;;
4325;SDS011;58429;49.826;10.880;2022-08-25T01:44:05;11.6;;;4.6;;
4325;SDS011;58429;49.826;10.880;2022-08-25T01:45:05;11.6;;;4.6;;
4325;SDS011;58429;49.826;10.880;2022-08-25T01:46:05;10.5;;;4.7;;
4325;SDS011;58429;49.826;10.880;2022-08-25T01:47:05;10.5;;;4.7;;
4325;SDS011;58429;49.826;10.880;2022-08-25T01:48:06;10.5;;;4.7;;
4325;SDS011;58429;49.826;10.880;2022-08-25T01:49:05;11.5;;;5;;
4325;SDS011;58429;49.826;10.880;2022-08-25T01:50:05;11.5;;;5;;
4325;SDS011;58429;49.826;10.880;2022-08-25T01:51:05;11.5;;;5;;
4325;SDS011;58429;49.826;10.880;2022-08-25T01:52:06;12.6;;;5.5;;
4325;SDS011;58429;49.826;10.880;2022-08-25T01:53:06;12.6;;;5.5;;
4325;SDS011;58429;49.826;10.880;2022-08-25T01:54:05;12.6;;;5.5;;
4325;SDS011;58429;49.826;10.880;2022-08-25T01:55:05;14.8;;;9.9;;
4325;SDS011;58429;49.826;10.880;2022-08-25T01:56:07;14.8;;;9.9;;
4325;SDS011;58429;49.826;10.880;2022-08-25T01:57:05;14.8;;;9.9;;
4325;SDS011;58429;49.826;10.880;2022-08-25T01:58:05;54;;;48.1;;
4325;SDS011;58429;49.826;10.880;2022-08-25T01:59:05;54;;;48.1;;
4325;SDS011;58429;49.826;10.880;2022-08-25T02:00:05;54;;;48.1;;
4325;SDS011;58429;49.826;10.880;2022-08-25T02:01:06;13.8;;;6.8;;
4325;SDS011;58429;49.826;10.880;2022-08-25T02:02:05;13.8;;;6.8;;
4325;SDS011;58429;49.826;10.880;2022-08-25T02:03:05;13.8;;;6.8;;
4325;SDS011;58429;49.826;10.880;2022-08-25T02:04:05;26.3;;;24;;
4325;SDS011;58429;49.826;10.880;2022-08-25T02:05:05;26.3;;;24;;
4325;SDS011;58429;49.826;10.880;2022-08-25T02:06:05;26.3;;;24;;
4325;SDS011;58429;49.826;10.880;2022-08-25T02:07:05;42.4;;;38.3;;
4325;SDS011;58429;49.826;10.880;2022-08-25T02:08:05;42.4;;;38.3;;
4325;SDS011;58429;49.826;10.880;2022-08-25T02:09:07;42.4;;;38.3;;
4325;SDS011;58429;49.826;10.880;2022-08-25T02:10:05;49.2;;;44.2;;
4325;SDS011;58429;49.826;10.880;2022-08-25T02:11:05;49.2;;;44.2;;
4325;SDS011;58429;49.826;10.880;2022-08-25T02:12:05;49.2;;;44.2;;
4325;SDS011;58429;49.826;10.880;2022-08-25T02:13:05;60.8;;;54.1;;
4325;SDS011;58429;49.826;10.880;2022-08-25T02:14:05;60.8;;;54.1;;
4325;SDS011;58429;49.826;10.880;2022-08-25T02:15:06;60.8;;;54.1;;
4325;SDS011;58429;49.826;10.880;2022-08-25T02:16:05;68.3;;;58;;
4325;SDS011;58429;49.826;10.880;2022-08-25T02:17:05;68.3;;;58;;
4325;SDS011;58429;49.826;10.880;2022-08-25T02:18:05;68.3;;;58;;
4325;SDS011;58429;49.826;10.880;2022-08-25T02:19:06;78.9;;;62.4;;
4325;SDS011;58429;49.826;10.880;2022-08-25T02:20:05;78.9;;;62.4;;
4325;SDS011;58429;49.826;10.880;2022-08-25T02:21:05;78.9;;;62.4;;
4325;SDS011;58429;49.826;10.880;2022-08-25T02:22:05;91.6;;;66.9;;
4325;SDS011;58429;49.826;10.880;2022-08-25T02:23:05;91.6;;;66.9;;
4325;SDS011;58429;49.826;10.880;2022-08-25T02:24:05;91.6;;;66.9;;
4325;SDS011;58429;49.826;10.880;2022-08-25T02:25:05;94.5;;;67.6;;
4325;SDS011;58429;49.826;10.880;2022-08-25T02:26:05;94.5;;;67.6;;
4325;SDS011;58429;49.826;10.880;2022-08-25T02:27:05;94.5;;;67.6;;
4325;SDS011;58429;49.826;10.880;2022-08-25T02:28:05;127.3;;;80.1;;
4325;SDS011;58429;49.826;10.880;2022-08-25T02:29:05;127.3;;;80.1;;
4325;SDS011;58429;49.826;10.880;2022-08-25T02:30:05;127.3;;;80.1;;
4325;SDS011;58429;49.826;10.880;2022-08-25T02:31:05;81.4;;;55.1;;
4325;SDS011;58429;49.826;10.880;2022-08-25T02:32:05;81.4;;;55.1;;
4325;SDS011;58429;49.826;10.880;2022-08-25T02:33:05;81.4;;;55.1;;
4325;SDS011;58429;49.826;10.880;2022-08-25T02:34:05;24.1;;;18.6;;
4325;SDS011;58429;49.826;10.880;2022-08-25T02:35:06;24.1;;;18.6;;
4325;SDS011;58429;49.826;10.880;2022-08-25T02:36:05;24.1;;;18.6;;
4325;SDS011;58429;49.826;10.880;2022-08-25T02:37:05;12.6;;;6.5;;
4325;SDS011;58429;49.826;10.880;2022-08-25T02:38:05;12.6;;;6.5;;
4325;SDS011;58429;49.826;10.880;2022-08-25T02:39:05;12.6;;;6.5;;
4325;SDS011;58429;49.826;10.880;2022-08-25T02:40:05;11.9;;;5;;
4325;SDS011;58429;49.826;10.880;2022-08-25T02:41:07;11.9;;;5;;
4325;SDS011;58429;49.826;10.880;2022-08-25T02:42:05;11.9;;;5;;
4325;SDS011;58429;49.826;10.880;2022-08-25T02:43:05;12.6;;;4.8;;
4325;SDS011;58429;49.826;10.880;2022-08-25T02:44:06;12.6;;;4.8;;
4325;SDS011;58429;49.826;10.880;2022-08-25T02:45:05;12.6;;;4.8;;
4325;SDS011;58429;49.826;10.880;2022-08-25T02:46:05;12.6;;;4.7;;
4325;SDS011;58429;49.826;10.880;2022-08-25T02:47:05;12.6;;;4.7;;
4325;SDS011;58429;49.826;10.880;2022-08-25T02:48:05;12.6;;;4.7;;
4325;SDS011;58429;49.826;10.880;2022-08-25T02:49:05;11.6;;;4.5;;
4325;SDS011;58429;49.826;10.880;2022-08-25T02:50:05;11.6;;;4.5;;
4325;SDS011;58429;49.826;10.880;2022-08-25T02:51:05;11.6;;;4.5;;
4325;SDS011;58429;49.826;10.880;2022-08-25T02:52:05;12;;;4.9;;
4325;SDS011;58429;49.826;10.880;2022-08-25T02:53:05;12;;;4.9;;
4325;SDS011;58429;49.826;10.880;2022-08-25T02:54:05;12;;;4.9;;
4325;SDS011;58429;49.826;10.880;2022-08-25T02:55:06;12.1;;;5;;
4325;SDS011;58429;49.826;10.880;2022-08-25T02:56:06;12.1;;;5;;
4325;SDS011;58429;49.826;10.880;2022-08-25T02:57:05;12.1;;;5;;
4325;SDS011;58429;49.826;10.880;2022-08-25T02:58:05;12.4;;;5.7;;
4325;SDS011;58429;49.826;10.880;2022-08-25T02:59:05;12.4;;;5.7;;
4325;SDS011;58429;49.826;10.880;2022-08-25T03:00:05;12.4;;;5.7;;
4325;SDS011;58429;49.826;10.880;2022-08-25T03:01:05;12.3;;;6.4;;
4325;SDS011;58429;49.826;10.880;2022-08-25T03:02:05;12.3;;;6.4;;
4325;SDS011;58429;49.826;10.880;2022-08-25T03:03:05;12.3;;;6.4;;
4325;SDS011;58429;49.826;10.880;2022-08-25T03:04:05;16.8;;;14.9;;
4325;SDS011;58429;49.826;10.880;2022-08-25T03:05:05;16.8;;;14.9;;
4325;SDS011;58429;49.826;10.880;2022-08-25T03:06:05;16.8;;;14.9;;
4325;SDS011;58429;49.826;10.880;2022-08-25T03:07:05;12.2;;;6.1;;
4325;SDS011;58429;49.826;10.880;2022-08-25T03:08:05;12.2;;;6.1;;
4325;SDS011;58429;49.826;10.880;2022-08-25T03:09:05;12.2;;;6.1;;
4325;SDS011;58429;49.826;10.880;2022-08-25T03:10:05;27.4;;;24.7;;
4325;SDS011;58429;49.826;10.880;2022-08-25T03:11:05;27.4;;;24.7;;
4325;SDS011;58429;49.826;10.880;2022-08-25T03:12:05;27.4;;;24.7;;
4325;SDS011;58429;49.826;10.880;2022-08-25T03:13:05;38;;;34.3;;
4325;SDS011;58429;49.826;10.880;2022-08-25T03:14:05;38;;;34.3;;
4325;SDS011;58429;49.826;10.880;2022-08-25T03:15:05;38;;;34.3;;
4325;SDS011;58429;49.826;10.880;2022-08-25T03:16:05;48.6;;;44;;
4325;SDS011;58429;49.826;10.880;2022-08-25T03:17:05;48.6;;;44;;
4325;SDS011;58429;49.826;10.880;2022-08-25T03:18:05;48.6;;;44;;
4325;SDS011;58429;49.826;10.880;2022-08-25T03:19:05;60.9;;;53.9;;
4325;SDS011;58429;49.826;10.880;2022-08-25T03:20:05;60.9;;;53.9;;
4325;SDS011;58429;49.826;10.880;2022-08-25T03:21:05;60.9;;;53.9;;
4325;SDS011;58429;49.826;10.880;2022-08-25T03:22:05;59.5;;;51.4;;
4325;SDS011;58429;49.826;10.880;2022-08-25T03:23:05;59.5;;;51.4;;
4325;SDS011;58429;49.826;10.880;2022-08-25T03:24:05;59.5;;;51.4;;
4325;SDS011;58429;49.826;10.880;2022-08-25T03:25:05;50.5;;;45.6;;
4325;SDS011;58429;49.826;10.880;2022-08-25T03:26:05;50.5;;;45.6;;
4325;SDS011;58429;49.826;10.880;2022-08-25T03:27:05;50.5;;;45.6;;
4325;SDS011;58429;49.826;10.880;2022-08-25T03:28:05;83.1;;;64.3;;
4325;SDS011;58429;49.826;10.880;2022-08-25T03:29:05;83.1;;;64.3;;
4325;SDS011;58429;49.826;10.880;2022-08-25T03:30:05;83.1;;;64.3;;
4325;SDS011;58429;49.826;10.880;2022-08-25T03:31:05;117.9;;;75.8;;
4325;SDS011;58429;49.826;10.880;2022-08-25T03:32:05;117.9;;;75.8;;
4325;SDS011;58429;49.826;10.880;2022-08-25T03:33:05;117.9;;;75.8;;
4325;SDS011;58429;49.826;10.880;2022-08-25T03:34:05;117.9;;;75.8;;
4325;SDS011;58429;49.826;10.880;2022-08-25T03:35:05;113;;;74.8;;
4325;SDS011;58429;49.826;10.880;2022-08-25T03:36:05;113;;;74.8;;
4325;SDS011;58429;49.826;10.880;2022-08-25T03:37:05;113;;;74.8;;
4325;SDS011;58429;49.826;10.880;2022-08-25T03:38:05;141.9;;;84.9;;
4325;SDS011;58429;49.826;10.880;2022-08-25T03:39:05;141.9;;;84.9;;
4325;SDS011;58429;49.826;10.880;2022-08-25T03:40:06;141.9;;;84.9;;
4325;SDS011;58429;49.826;10.880;2022-08-25T03:41:13;198.2;;;106;;
4325;SDS011;58429;49.826;10.880;2022-08-25T03:42:05;198.2;;;106;;
4325;SDS011;58429;49.826;10.880;2022-08-25T03:43:05;198.2;;;106;;
4325;SDS011;58429;49.826;10.880;2022-08-25T03:44:06;222.2;;;115.3;;
4325;SDS011;58429;49.826;10.880;2022-08-25T03:45:05;222.2;;;115.3;;
4325;SDS011;58429;49.826;10.880;2022-08-25T03:46:05;222.2;;;115.3;;
4325;SDS011;58429;49.826;10.880;2022-08-25T03:47:05;223.8;;;117.2;;
4325;SDS011;58429;49.826;10.880;2022-08-25T03:48:05;223.8;;;117.2;;
4325;SDS011;58429;49.826;10.880;2022-08-25T03:49:05;223.8;;;117.2;;
4325;SDS011;58429;49.826;10.880;2022-08-25T03:50:06;229.1;;;120.9;;
4325;SDS011;58429;49.826;10.880;2022-08-25T03:51:05;229.1;;;120.9;;
4325;SDS011;58429;49.826;10.880;2022-08-25T03:52:05;229.1;;;120.9;;
4325;SDS011;58429;49.826;10.880;2022-08-25T03:53:05;260.5;;;134.9;;
4325;SDS011;58429;49.826;10.880;2022-08-25T03:54:05;260.5;;;134.9;;
4325;SDS011;58429;49.826;10.880;2022-08-25T03:55:06;260.5;;;134.9;;
4325;SDS011;58429;49.826;10.880;2022-08-25T03:56:05;267.1;;;138.7;;
4325;SDS011;58429;49.826;10.880;2022-08-25T03:57:05;267.1;;;138.7;;
4325;SDS011;58429;49.826;10.880;2022-08-25T03:58:05;267.1;;;138.7;;
4325;SDS011;58429;49.826;10.880;2022-08-25T03:59:05;307.6;;;155.4;;
4325;SDS011;58429;49.826;10.880;2022-08-25T04:00:05;307.6;;;155.4;;
4325;SDS011;58429;49.826;10.880;2022-08-25T04:01:05;307.6;;;155.4;;
4325;SDS011;58429;49.826;10.880;2022-08-25T04:02:05;277.2;;;142.2;;
4325;SDS011;58429;49.826;10.880;2022-08-25T04:03:05;277.2;;;142.2;;
4325;SDS011;58429;49.826;10.880;2022-08-25T04:04:05;277.2;;;142.2;;
4325;SDS011;58429;49.826;10.880;2022-08-25T04:05:05;291.6;;;145.4;;
4325;SDS011;58429;49.826;10.880;2022-08-25T04:06:05;291.6;;;145.4;;
4325;SDS011;58429;49.826;10.880;2022-08-25T04:07:05;291.6;;;145.4;;
4325;SDS011;58429;49.826;10.880;2022-08-25T04:08:05;336.3;;;162.1;;
4325;SDS011;58429;49.826;10.880;2022-08-25T04:09:05;336.3;;;162.1;;
4325;SDS011;58429;49.826;10.880;2022-08-25T04:10:05;336.3;;;162.1;;
4325;SDS011;58429;49.826;10.880;2022-08-25T04:11:06;342.1;;;163.9;;
4325;SDS011;58429;49.826;10.880;2022-08-25T04:12:06;342.1;;;163.9;;
4325;SDS011;58429;49.826;10.880;2022-08-25T04:13:05;342.1;;;163.9;;
4325;SDS011;58429;49.826;10.880;2022-08-25T04:14:05;355.2;;;171.1;;
4325;SDS011;58429;49.826;10.880;2022-08-25T04:15:05;355.2;;;171.1;;
4325;SDS011;58429;49.826;10.880;2022-08-25T04:16:09;355.2;;;171.1;;
4325;SDS011;58429;49.826;10.880;2022-08-25T04:17:05;294.9;;;145.3;;
4325;SDS011;58429;49.826;10.880;2022-08-25T04:18:05;294.9;;;145.3;;
4325;SDS011;58429;49.826;10.880;2022-08-25T04:19:05;294.9;;;145.3;;
4325;SDS011;58429;49.826;10.880;2022-08-25T04:20:05;310.4;;;151.7;;
4325;SDS011;58429;49.826;10.880;2022-08-25T04:21:05;310.4;;;151.7;;
4325;SDS011;58429;49.826;10.880;2022-08-25T04:22:05;310.4;;;151.7;;
4325;SDS011;58429;49.826;10.880;2022-08-25T04:23:05;348.2;;;167.2;;
4325;SDS011;58429;49.826;10.880;2022-08-25T04:24:05;348.2;;;167.2;;
4325;SDS011;58429;49.826;10.880;2022-08-25T04:25:05;348.2;;;167.2;;
4325;SDS011;58429;49.826;10.880;2022-08-25T04:26:07;367.7;;;175.6;;
4325;SDS011;58429;49.826;10.880;2022-08-25T04:27:05;367.7;;;175.6;;
4325;SDS011;58429;49.826;10.880;2022-08-25T04:28:05;367.7;;;175.6;;
4325;SDS011;58429;49.826;10.880;2022-08-25T04:29:06;365.7;;;174.9;;
4325;SDS011;58429;49.826;10.880;2022-08-25T04:30:05;365.7;;;174.9;;
4325;SDS011;58429;49.826;10.880;2022-08-25T04:31:05;365.7;;;174.9;;
4325;SDS011;58429;49.826;10.880;2022-08-25T04:32:05;365.2;;;176.8;;
4325;SDS011;58429;49.826;10.880;2022-08-25T04:33:05;365.2;;;176.8;;
4325;SDS011;58429;49.826;10.880;2022-08-25T04:34:05;365.2;;;176.8;;
4325;SDS011;58429;49.826;10.880;2022-08-25T04:35:05;291.7;;;188.6;;
4325;SDS011;58429;49.826;10.880;2022-08-25T04:36:05;291.7;;;188.6;;
4325;SDS011;58429;49.826;10.880;2022-08-25T04:37:05;291.7;;;188.6;;
4325;SDS011;58429;49.826;10.880;2022-08-25T04:38:05;249.5;;;143.5;;
4325;SDS011;58429;49.826;10.880;2022-08-25T04:39:05;249.5;;;143.5;;
4325;SDS011;58429;49.826;10.880;2022-08-25T04:40:05;249.5;;;143.5;;
4325;SDS011;58429;49.826;10.880;2022-08-25T04:41:05;369.5;;;177.9;;
4325;SDS011;58429;49.826;10.880;2022-08-25T04:42:05;369.5;;;177.9;;
4325;SDS011;58429;49.826;10.880;2022-08-25T04:43:05;369.5;;;177.9;;
4325;SDS011;58429;49.826;10.880;2022-08-25T04:44:05;307.5;;;152.6;;
4325;SDS011;58429;49.826;10.880;2022-08-25T04:45:05;307.5;;;152.6;;
4325;SDS011;58429;49.826;10.880;2022-08-25T04:46:05;307.5;;;152.6;;
4325;SDS011;58429;49.826;10.880;2022-08-25T04:47:05;126.4;;;61.7;;
4325;SDS011;58429;49.826;10.880;2022-08-25T04:48:05;126.4;;;61.7;;
4325;SDS011;58429;49.826;10.880;2022-08-25T04:49:05;126.4;;;61.7;;
4325;SDS011;58429;49.826;10.880;2022-08-25T04:50:05;12.3;;;5.1;;
4325;SDS011;58429;49.826;10.880;2022-08-25T04:51:05;12.3;;;5.1;;
4325;SDS011;58429;49.826;10.880;2022-08-25T04:52:05;12.3;;;5.1;;
4325;SDS011;58429;49.826;10.880;2022-08-25T04:53:05;11.8;;;4.7;;
4325;SDS011;58429;49.826;10.880;2022-08-25T04:54:06;11.8;;;4.7;;
4325;SDS011;58429;49.826;10.880;2022-08-25T04:55:05;11.8;;;4.7;;
4325;SDS011;58429;49.826;10.880;2022-08-25T04:56:06;12.6;;;4.9;;
4325;SDS011;58429;49.826;10.880;2022-08-25T04:57:05;12.6;;;4.9;;
4325;SDS011;58429;49.826;10.880;2022-08-25T04:58:05;12.6;;;4.9;;
4325;SDS011;58429;49.826;10.880;2022-08-25T04:59:06;15;;;5;;
4325;SDS011;58429;49.826;10.880;2022-08-25T05:00:06;15;;;5;;
4325;SDS011;58429;49.826;10.880;2022-08-25T05:01:06;15;;;5;;
4325;SDS011;58429;49.826;10.880;2022-08-25T05:02:05;12.7;;;5.1;;
4325;SDS011;58429;49.826;10.880;2022-08-25T05:03:05;12.7;;;5.1;;
4325;SDS011;58429;49.826;10.880;2022-08-25T05:04:06;12.7;;;5.1;;
4325;SDS011;58429;49.826;10.880;2022-08-25T05:05:05;12.1;;;5.3;;
4325;SDS011;58429;49.826;10.880;2022-08-25T05:06:05;12.1;;;5.3;;
4325;SDS011;58429;49.826;10.880;2022-08-25T05:07:05;12.1;;;5.3;;
4325;SDS011;58429;49.826;10.880;2022-08-25T05:08:05;11.7;;;4.8;;
4325;SDS011;58429;49.826;10.880;2022-08-25T05:09:05;11.7;;;4.8;;
4325;SDS011;58429;49.826;10.880;2022-08-25T05:10:05;11.7;;;4.8;;
4325;SDS011;58429;49.826;10.880;2022-08-25T05:11:05;13;;;5.7;;
4325;SDS011;58429;49.826;10.880;2022-08-25T05:12:05;13;;;5.7;;
4325;SDS011;58429;49.826;10.880;2022-08-25T05:13:05;13;;;5.7;;
4325;SDS011;58429;49.826;10.880;2022-08-25T05:14:05;12.2;;;5.1;;
4325;SDS011;58429;49.826;10.880;2022-08-25T05:15:05;12.2;;;5.1;;
4325;SDS011;58429;49.826;10.880;2022-08-25T05:16:05;12.2;;;5.1;;
4325;SDS011;58429;49.826;10.880;2022-08-25T05:17:05;11.4;;;4.6;;
4325;SDS011;58429;49.826;10.880;2022-08-25T05:18:05;11.4;;;4.6;;
4325;SDS011;58429;49.826;10.880;2022-08-25T05:19:05;11.4;;;4.6;;
4325;SDS011;58429;49.826;10.880;2022-08-25T05:20:06;13.4;;;5;;
4325;SDS011;58429;49.826;10.880;2022-08-25T05:21:06;13.4;;;5;;
4325;SDS011;58429;49.826;10.880;2022-08-25T05:22:05;13.4;;;5;;
4325;SDS011;58429;49.826;10.880;2022-08-25T05:23:05;12.1;;;5.3;;
4325;SDS011;58429;49.826;10.880;2022-08-25T05:24:05;12.1;;;5.3;;
4325;SDS011;58429;49.826;10.880;2022-08-25T05:25:05;12.1;;;5.3;;
4325;SDS011;58429;49.826;10.880;2022-08-25T05:26:06;12.5;;;5;;
4325;SDS011;58429;49.826;10.880;2022-08-25T05:27:05;12.5;;;5;;
4325;SDS011;58429;49.826;10.880;2022-08-25T05:28:05;12.5;;;5;;
4325;SDS011;58429;49.826;10.880;2022-08-25T05:29:05;13.5;;;5.3;;
4325;SDS011;58429;49.826;10.880;2022-08-25T05:30:05;13.5;;;5.3;;
4325;SDS011;58429;49.826;10.880;2022-08-25T05:31:05;13.5;;;5.3;;
4325;SDS011;58429;49.826;10.880;2022-08-25T05:32:05;13.5;;;6;;
4325;SDS011;58429;49.826;10.880;2022-08-25T05:33:05;13.5;;;6;;
4325;SDS011;58429;49.826;10.880;2022-08-25T05:34:06;13.5;;;6;;
4325;SDS011;58429;49.826;10.880;2022-08-25T05:35:05;11.9;;;5.5;;
4325;SDS011;58429;49.826;10.880;2022-08-25T05:36:06;11.9;;;5.5;;
4325;SDS011;58429;49.826;10.880;2022-08-25T05:37:05;11.9;;;5.5;;
4325;SDS011;58429;49.826;10.880;2022-08-25T05:38:05;11.9;;;5.5;;
4325;SDS011;58429;49.826;10.880;2022-08-25T05:39:05;12.9;;;5.6;;
4325;SDS011;58429;49.826;10.880;2022-08-25T05:40:06;12.9;;;5.6;;
4325;SDS011;58429;49.826;10.880;2022-08-25T05:41:06;12.9;;;5.6;;
4325;SDS011;58429;49.826;10.880;2022-08-25T05:42:05;12.2;;;5.3;;
4325;SDS011;58429;49.826;10.880;2022-08-25T05:43:05;12.2;;;5.3;;
4325;SDS011;58429;49.826;10.880;2022-08-25T05:44:05;12.2;;;5.3;;
4325;SDS011;58429;49.826;10.880;2022-08-25T05:45:05;18.4;;;15.9;;
4325;SDS011;58429;49.826;10.880;2022-08-25T05:46:05;18.4;;;15.9;;
4325;SDS011;58429;49.826;10.880;2022-08-25T05:47:05;18.4;;;15.9;;
4325;SDS011;58429;49.826;10.880;2022-08-25T05:48:05;175.6;;;98.5;;
4325;SDS011;58429;49.826;10.880;2022-08-25T05:49:05;175.6;;;98.5;;
4325;SDS011;58429;49.826;10.880;2022-08-25T05:50:06;175.6;;;98.5;;
4325;SDS011;58429;49.826;10.880;2022-08-25T05:51:06;84.9;;;64.2;;
4325;SDS011;58429;49.826;10.880;2022-08-25T05:52:05;84.9;;;64.2;;
4325;SDS011;58429;49.826;10.880;2022-08-25T05:53:05;84.9;;;64.2;;
4325;SDS011;58429;49.826;10.880;2022-08-25T05:54:05;31.2;;;25.4;;
4325;SDS011;58429;49.826;10.880;2022-08-25T05:55:05;31.2;;;25.4;;
4325;SDS011;58429;49.826;10.880;2022-08-25T05:56:05;31.2;;;25.4;;
4325;SDS011;58429;49.826;10.880;2022-08-25T05:57:05;15;;;8.9;;
4325;SDS011;58429;49.826;10.880;2022-08-25T05:58:05;15;;;8.9;;
4325;SDS011;58429;49.826;10.880;2022-08-25T05:59:05;15;;;8.9;;
4325;SDS011;58429;49.826;10.880;2022-08-25T06:00:06;14.8;;;6.7;;
4325;SDS011;58429;49.826;10.880;2022-08-25T06:01:05;14.8;;;6.7;;